sensor_id;sensor_type;location;lat;lon;timestamp;pressure;altitude;pressure_sealevel;temperature;humidity
31585;BME280;18191;51.288;12.390;2023-04-22T00:00:48;49016.78;;;-144.47;61.12
31585;BME280;18191;51.288;12.390;2023-04-22T00:05:39;49040.66;;;-144.47;61.16
31585;BME280;18191;51.288;12.390;2023-04-22T00:10:30;49062.56;;;-144.47;61.57
31585;BME280;18191;51.288;12.390;2023-04-22T00:15:20;49064.53;;;-144.47;62.23
31585;BME280;18191;51.288;12.390;2023-04-22T00:20:11;49032.72;;;-144.47;62.88
31585;BME280;18191;51.288;12.390;2023-04-22T00:25:01;49050.63;;;-144.47;61.31
31585;BME280;18191;51.288;12.390;2023-04-22T00:29:51;49072.50;;;-144.47;61.84
31585;BME280;18191;51.288;12.390;2023-04-22T00:34:41;49036.69;;;-144.47;62.07
31585;BME280;18191;51.288;12.390;2023-04-22T00:39:32;49024.75;;;-144.47;61.84
31585;BME280;18191;51.288;12.390;2023-04-22T00:44:22;49028.72;;;-144.47;61.78
31585;BME280;18191;51.288;12.390;2023-04-22T00:49:13;48996.91;;;-144.47;62.28
31585;BME280;18191;51.288;12.390;2023-04-22T00:54:03;49054.59;;;-144.47;62.99
31585;BME280;18191;51.288;12.390;2023-04-22T00:58:55;49030.72;;;-144.47;62.71
31585;BME280;18191;51.288;12.390;2023-04-22T01:03:46;49032.72;;;-144.47;61.28
31585;BME280;18191;51.288;12.390;2023-04-22T01:08:37;49018.78;;;-144.47;61.39
31585;BME280;18191;51.288;12.390;2023-04-22T01:13:27;49020.78;;;-144.47;61.76
31585;BME280;18191;51.288;12.390;2023-04-22T01:18:19;49062.56;;;-144.47;61.62
31585;BME280;18191;51.288;12.390;2023-04-22T01:23:18;49000.88;;;-144.47;60.78
31585;BME280;18191;51.288;12.390;2023-04-22T01:28:09;49024.75;;;-144.47;61.58
31585;BME280;18191;51.288;12.390;2023-04-22T01:32:59;49034.69;;;-144.47;61.23
31585;BME280;18191;51.288;12.390;2023-04-22T01:37:49;49000.88;;;-144.47;61.16
31585;BME280;18191;51.288;12.390;2023-04-22T01:42:40;48992.94;;;-144.47;61.06
31585;BME280;18191;51.288;12.390;2023-04-22T01:47:30;49042.66;;;-144.47;60.66
31585;BME280;18191;51.288;12.390;2023-04-22T01:52:20;49040.66;;;-144.47;60.71
31585;BME280;18191;51.288;12.390;2023-04-22T01:57:11;49022.75;;;-144.47;60.95
31585;BME280;18191;51.288;12.390;2023-04-22T02:02:03;49052.59;;;-144.47;60.82
31585;BME280;18191;51.288;12.390;2023-04-22T02:06:53;49044.66;;;-144.47;60.59
31585;BME280;18191;51.288;12.390;2023-04-22T02:11:43;49008.84;;;-144.47;61.25
31585;BME280;18191;51.288;12.390;2023-04-22T02:16:33;49024.75;;;-144.47;60.47
31585;BME280;18191;51.288;12.390;2023-04-22T02:21:23;49036.69;;;-144.47;61.96
31585;BME280;18191;51.288;12.390;2023-04-22T02:26:13;49012.81;;;-144.47;61.98
31585;BME280;18191;51.288;12.390;2023-04-22T02:31:04;49012.81;;;-144.47;61.86
31585;BME280;18191;51.288;12.390;2023-04-22T02:35:54;49016.78;;;-144.47;62.92
31585;BME280;18191;51.288;12.390;2023-04-22T02:40:44;48996.91;;;-144.47;62.60
31585;BME280;18191;51.288;12.390;2023-04-22T02:45:34;48988.94;;;-144.47;62.60
31585;BME280;18191;51.288;12.390;2023-04-22T02:50:25;48996.91;;;-144.47;62.91
31585;BME280;18191;51.288;12.390;2023-04-22T02:55:15;49012.81;;;-144.47;62.03
31585;BME280;18191;51.288;12.390;2023-04-22T03:00:05;49022.75;;;-144.47;63.00
31585;BME280;18191;51.288;12.390;2023-04-22T03:04:56;49006.84;;;-144.47;62.97
31585;BME280;18191;51.288;12.390;2023-04-22T03:09:47;49052.59;;;-144.47;63.54
31585;BME280;18191;51.288;12.390;2023-04-22T03:14:37;49022.75;;;-144.47;65.23
31585;BME280;18191;51.288;12.390;2023-04-22T03:19:27;49008.84;;;-144.47;64.98
31585;BME280;18191;51.288;12.390;2023-04-22T03:24:17;49010.81;;;-144.47;65.84
31585;BME280;18191;51.288;12.390;2023-04-22T03:29:07;49000.88;;;-144.47;65.13
31585;BME280;18191;51.288;12.390;2023-04-22T03:34:00;49010.81;;;-144.47;64.86
31585;BME280;18191;51.288;12.390;2023-04-22T03:38:50;48996.91;;;-144.47;65.77
31585;BME280;18191;51.288;12.390;2023-04-22T03:43:41;49006.84;;;-144.47;66.49
31585;BME280;18191;51.288;12.390;2023-04-22T03:48:31;49020.78;;;-144.47;67.25
31585;BME280;18191;51.288;12.390;2023-04-22T03:53:24;49020.78;;;-144.47;68.06
31585;BME280;18191;51.288;12.390;2023-04-22T03:58:14;49008.84;;;-144.47;68.81
31585;BME280;18191;51.288;12.390;2023-04-22T04:03:04;49022.75;;;-144.47;70.17
31585;BME280;18191;51.288;12.390;2023-04-22T04:07:55;49044.66;;;-144.47;70.33
31585;BME280;18191;51.288;12.390;2023-04-22T04:12:45;49026.75;;;-144.47;69.99
31585;BME280;18191;51.288;12.390;2023-04-22T04:17:35;48994.91;;;-144.47;68.75
31585;BME280;18191;51.288;12.390;2023-04-22T04:22:25;49012.81;;;-144.47;68.06
31585;BME280;18191;51.288;12.390;2023-04-22T04:27:18;49004.84;;;-144.47;67.89
31585;BME280;18191;51.288;12.390;2023-04-22T04:32:08;49022.75;;;-144.47;68.22
31585;BME280;18191;51.288;12.390;2023-04-22T04:36:59;49008.84;;;-144.47;67.99
31585;BME280;18191;51.288;12.390;2023-04-22T04:41:49;48992.94;;;-144.47;67.87
31585;BME280;18191;51.288;12.390;2023-04-22T04:46:44;48984.97;;;-144.47;66.58
31585;BME280;18191;51.288;12.390;2023-04-22T04:51:35;49014.81;;;-144.47;66.10
31585;BME280;18191;51.288;12.390;2023-04-22T04:56:25;48996.91;;;-144.47;66.06
31585;BME280;18191;51.288;12.390;2023-04-22T05:01:15;49022.75;;;-144.47;66.18
31585;BME280;18191;51.288;12.390;2023-04-22T05:06:06;49032.72;;;-144.47;66.10
31585;BME280;18191;51.288;12.390;2023-04-22T05:10:56;48975.03;;;-144.47;65.71
31585;BME280;18191;51.288;12.390;2023-04-22T05:15:46;49032.72;;;-144.47;65.12
31585;BME280;18191;51.288;12.390;2023-04-22T05:20:36;49008.84;;;-144.47;64.89
31585;BME280;18191;51.288;12.390;2023-04-22T05:25:27;49020.78;;;-144.47;63.30
31585;BME280;18191;51.288;12.390;2023-04-22T05:30:17;48961.09;;;-144.47;63.10
31585;BME280;18191;51.288;12.390;2023-04-22T05:35:07;49004.84;;;-144.47;62.81
31585;BME280;18191;51.288;12.390;2023-04-22T05:39:58;48969.06;;;-144.47;52.26
31585;BME280;18191;51.288;12.390;2023-04-22T05:44:48;48947.16;;;-144.47;40.64
31585;BME280;18191;51.288;12.390;2023-04-22T05:49:38;48965.06;;;-144.47;39.93
31585;BME280;18191;51.288;12.390;2023-04-22T05:54:28;48969.06;;;-144.47;45.64
31585;BME280;18191;51.288;12.390;2023-04-22T05:59:18;48941.19;;;-144.47;49.16
31585;BME280;18191;51.288;12.390;2023-04-22T06:04:09;48949.16;;;-144.47;50.29
31585;BME280;18191;51.288;12.390;2023-04-22T06:09:00;48988.94;;;-144.47;50.75
31585;BME280;18191;51.288;12.390;2023-04-22T06:13:51;48925.28;;;-144.47;51.75
31585;BME280;18191;51.288;12.390;2023-04-22T06:18:42;48981.00;;;-144.47;51.80
31585;BME280;18191;51.288;12.390;2023-04-22T06:23:35;48981.00;;;-144.47;51.54
31585;BME280;18191;51.288;12.390;2023-04-22T06:28:25;48986.97;;;-144.47;51.27
31585;BME280;18191;51.288;12.390;2023-04-22T06:33:15;48973.03;;;-144.47;51.87
31585;BME280;18191;51.288;12.390;2023-04-22T06:38:05;49016.78;;;-144.47;52.10
31585;BME280;18191;51.288;12.390;2023-04-22T06:42:55;48933.25;;;-144.47;52.04
31585;BME280;18191;51.288;12.390;2023-04-22T06:47:45;48977.00;;;-144.47;51.08
31585;BME280;18191;51.288;12.390;2023-04-22T06:52:36;48971.03;;;-144.47;52.13
31585;BME280;18191;51.288;12.390;2023-04-22T06:57:26;48953.13;;;-144.47;51.77
31585;BME280;18191;51.288;12.390;2023-04-22T07:02:16;48992.94;;;-144.47;51.06
31585;BME280;18191;51.288;12.390;2023-04-22T07:07:06;48992.94;;;-144.47;51.42
31585;BME280;18191;51.288;12.390;2023-04-22T07:11:57;48973.03;;;-144.47;50.19
31585;BME280;18191;51.288;12.390;2023-04-22T07:16:47;48953.13;;;-144.47;49.67
31585;BME280;18191;51.288;12.390;2023-04-22T07:21:38;48977.00;;;-144.47;49.31
31585;BME280;18191;51.288;12.390;2023-04-22T07:26:28;48937.22;;;-144.47;47.94
31585;BME280;18191;51.288;12.390;2023-04-22T07:31:20;48957.13;;;-144.47;46.83
31585;BME280;18191;51.288;12.390;2023-04-22T07:36:10;48973.03;;;-144.47;44.03
31585;BME280;18191;51.288;12.390;2023-04-22T07:41:01;48996.91;;;-144.47;45.38
31585;BME280;18191;51.288;12.390;2023-04-22T07:45:51;48953.13;;;-144.47;43.80
31585;BME280;18191;51.288;12.390;2023-04-22T07:50:41;48951.16;;;-144.47;42.77
31585;BME280;18191;51.288;12.390;2023-04-22T07:55:31;48984.97;;;-144.47;42.83
31585;BME280;18191;51.288;12.390;2023-04-22T08:00:22;48963.09;;;-144.47;42.30
31585;BME280;18191;51.288;12.390;2023-04-22T08:05:12;48977.00;;;-144.47;39.36
31585;BME280;18191;51.288;12.390;2023-04-22T08:10:02;48939.22;;;-144.47;39.42
31585;BME280;18191;51.288;12.390;2023-04-22T08:14:53;48957.13;;;-144.47;38.51
31585;BME280;18191;51.288;12.390;2023-04-22T08:19:43;48988.94;;;-144.47;37.88
31585;BME280;18191;51.288;12.390;2023-04-22T08:24:34;48965.06;;;-144.47;37.82
31585;BME280;18191;51.288;12.390;2023-04-22T08:29:24;48923.31;;;-144.47;37.76
31585;BME280;18191;51.288;12.390;2023-04-22T08:34:14;48961.09;;;-144.47;37.93
31585;BME280;18191;51.288;12.390;2023-04-22T08:39:05;48969.06;;;-144.47;37.99
31585;BME280;18191;51.288;12.390;2023-04-22T08:43:55;48929.28;;;-144.47;37.82
31585;BME280;18191;51.288;12.390;2023-04-22T08:48:46;48992.94;;;-144.47;38.82
31585;BME280;18191;51.288;12.390;2023-04-22T08:53:37;48996.91;;;-144.47;37.65
31585;BME280;18191;51.288;12.390;2023-04-22T08:58:27;48971.03;;;-144.47;36.16
31585;BME280;18191;51.288;12.390;2023-04-22T09:03:18;48963.09;;;-144.47;37.12
31585;BME280;18191;51.288;12.390;2023-04-22T09:08:09;48981.00;;;-144.47;36.81
31585;BME280;18191;51.288;12.390;2023-04-22T09:13:00;48957.13;;;-144.47;37.04
31585;BME280;18191;51.288;12.390;2023-04-22T09:17:52;48957.13;;;-144.47;36.51
31585;BME280;18191;51.288;12.390;2023-04-22T09:22:43;48957.13;;;-144.47;35.18
31585;BME280;18191;51.288;12.390;2023-04-22T09:27:35;48941.19;;;-144.47;36.30
31585;BME280;18191;51.288;12.390;2023-04-22T09:32:25;48969.06;;;-144.47;35.25
31585;BME280;18191;51.288;12.390;2023-04-22T09:37:19;48965.06;;;-144.47;34.75
31585;BME280;18191;51.288;12.390;2023-04-22T09:42:10;48977.00;;;-144.47;34.89
31585;BME280;18191;51.288;12.390;2023-04-22T09:47:00;48923.31;;;-144.47;34.80
31585;BME280;18191;51.288;12.390;2023-04-22T09:51:54;48955.13;;;-144.47;34.19
31585;BME280;18191;51.288;12.390;2023-04-22T09:56:45;48951.16;;;-144.47;33.75
31585;BME280;18191;51.288;12.390;2023-04-22T10:01:37;48949.16;;;-144.47;32.43
31585;BME280;18191;51.288;12.390;2023-04-22T10:06:29;48969.06;;;-144.47;33.39
31585;BME280;18191;51.288;12.390;2023-04-22T10:11:20;48955.13;;;-144.47;33.89
31585;BME280;18191;51.288;12.390;2023-04-22T10:16:11;48957.13;;;-144.47;33.07
31585;BME280;18191;51.288;12.390;2023-04-22T10:21:01;48925.28;;;-144.47;31.97
31585;BME280;18191;51.288;12.390;2023-04-22T10:25:52;48887.50;;;-144.47;31.62
31585;BME280;18191;51.288;12.390;2023-04-22T10:30:42;48984.97;;;-144.47;31.55
31585;BME280;18191;51.288;12.390;2023-04-22T10:35:32;48929.28;;;-144.47;31.75
31585;BME280;18191;51.288;12.390;2023-04-22T10:40:23;48933.25;;;-144.47;32.66
31585;BME280;18191;51.288;12.390;2023-04-22T10:45:13;48955.13;;;-144.47;30.46
31585;BME280;18191;51.288;12.390;2023-04-22T10:50:10;48953.13;;;-144.47;30.56
31585;BME280;18191;51.288;12.390;2023-04-22T10:55:00;48933.25;;;-144.47;32.09
31585;BME280;18191;51.288;12.390;2023-04-22T10:59:52;48927.28;;;-144.47;32.10
31585;BME280;18191;51.288;12.390;2023-04-22T11:04:43;48949.16;;;-144.47;30.55
31585;BME280;18191;51.288;12.390;2023-04-22T11:09:37;48925.28;;;-144.47;31.53
31585;BME280;18191;51.288;12.390;2023-04-22T11:14:28;48909.38;;;-144.47;30.58
31585;BME280;18191;51.288;12.390;2023-04-22T11:19:18;48957.13;;;-144.47;31.24
31585;BME280;18191;51.288;12.390;2023-04-22T11:24:08;48959.09;;;-144.47;30.81
31585;BME280;18191;51.288;12.390;2023-04-22T11:28:59;48923.31;;;-144.47;31.00
31585;BME280;18191;51.288;12.390;2023-04-22T11:33:49;48957.13;;;-144.47;31.17
31585;BME280;18191;51.288;12.390;2023-04-22T11:38:39;48913.34;;;-144.47;29.87
31585;BME280;18191;51.288;12.390;2023-04-22T11:43:30;48941.19;;;-144.47;30.30
31585;BME280;18191;51.288;12.390;2023-04-22T11:48:20;48935.25;;;-144.47;30.22
31585;BME280;18191;51.288;12.390;2023-04-22T11:53:14;48965.06;;;-144.47;30.98
31585;BME280;18191;51.288;12.390;2023-04-22T11:58:08;48957.13;;;-144.47;31.33
31585;BME280;18191;51.288;12.390;2023-04-22T12:03:03;48911.38;;;-144.47;30.07
31585;BME280;18191;51.288;12.390;2023-04-22T12:07:53;48923.31;;;-144.47;30.42
31585;BME280;18191;51.288;12.390;2023-04-22T12:12:43;48937.22;;;-144.47;30.17
31585;BME280;18191;51.288;12.390;2023-04-22T12:17:33;48937.22;;;-144.47;29.95
31585;BME280;18191;51.288;12.390;2023-04-22T12:22:24;48911.38;;;-144.47;29.18
31585;BME280;18191;51.288;12.390;2023-04-22T12:27:15;48925.28;;;-144.47;29.19
31585;BME280;18191;51.288;12.390;2023-04-22T12:32:05;48925.28;;;-144.47;28.86
31585;BME280;18191;51.288;12.390;2023-04-22T12:36:55;48889.50;;;-144.47;28.92
31585;BME280;18191;51.288;12.390;2023-04-22T12:41:46;48917.34;;;-144.47;29.01
31585;BME280;18191;51.288;12.390;2023-04-22T12:46:39;48945.19;;;-144.47;28.01
31585;BME280;18191;51.288;12.390;2023-04-22T12:51:32;48907.38;;;-144.47;28.84
31585;BME280;18191;51.288;12.390;2023-04-22T12:56:22;48905.41;;;-144.47;28.44
31585;BME280;18191;51.288;12.390;2023-04-22T13:01:12;48917.34;;;-144.47;28.52
31585;BME280;18191;51.288;12.390;2023-04-22T13:06:02;48901.41;;;-144.47;28.43
31585;BME280;18191;51.288;12.390;2023-04-22T13:10:52;48929.28;;;-144.47;28.73
31585;BME280;18191;51.288;12.390;2023-04-22T13:15:43;48919.31;;;-144.47;27.31
31585;BME280;18191;51.288;12.390;2023-04-22T13:20:33;48913.34;;;-144.47;28.49
31585;BME280;18191;51.288;12.390;2023-04-22T13:25:24;48925.28;;;-144.47;28.46
31585;BME280;18191;51.288;12.390;2023-04-22T13:30:14;48899.44;;;-144.47;28.38
31585;BME280;18191;51.288;12.390;2023-04-22T13:35:05;48915.34;;;-144.47;28.33
31585;BME280;18191;51.288;12.390;2023-04-22T13:39:57;48929.28;;;-144.47;28.91
31585;BME280;18191;51.288;12.390;2023-04-22T13:44:48;48909.38;;;-144.47;27.64
31585;BME280;18191;51.288;12.390;2023-04-22T13:49:38;48881.53;;;-144.47;27.74
31585;BME280;18191;51.288;12.390;2023-04-22T13:54:28;48887.50;;;-144.47;28.28
31585;BME280;18191;51.288;12.390;2023-04-22T13:59:18;48945.19;;;-144.47;29.13
31585;BME280;18191;51.288;12.390;2023-04-22T14:04:08;48903.41;;;-144.47;27.96
31585;BME280;18191;51.288;12.390;2023-04-22T14:08:59;48951.16;;;-144.47;28.59
31585;BME280;18191;51.288;12.390;2023-04-22T14:13:51;48917.34;;;-144.47;27.96
31585;BME280;18191;51.288;12.390;2023-04-22T14:18:41;48917.34;;;-144.47;28.86
31585;BME280;18191;51.288;12.390;2023-04-22T14:23:32;48917.34;;;-144.47;28.30
31585;BME280;18191;51.288;12.390;2023-04-22T14:28:22;48917.34;;;-144.47;28.29
31585;BME280;18191;51.288;12.390;2023-04-22T14:33:13;48917.34;;;-144.47;28.41
31585;BME280;18191;51.288;12.390;2023-04-22T14:38:04;48901.41;;;-144.47;27.80
31585;BME280;18191;51.288;12.390;2023-04-22T14:42:55;48893.47;;;-144.47;28.04
31585;BME280;18191;51.288;12.390;2023-04-22T14:47:46;48937.22;;;-144.47;28.63
31585;BME280;18191;51.288;12.390;2023-04-22T14:52:36;48893.47;;;-144.47;29.27
31585;BME280;18191;51.288;12.390;2023-04-22T14:57:26;48921.31;;;-144.47;28.68
31585;BME280;18191;51.288;12.390;2023-04-22T15:02:16;48937.22;;;-144.47;28.33
31585;BME280;18191;51.288;12.390;2023-04-22T15:07:07;48925.28;;;-144.47;26.97
31585;BME280;18191;51.288;12.390;2023-04-22T15:11:57;48913.34;;;-144.47;28.30
31585;BME280;18191;51.288;12.390;2023-04-22T15:16:48;48919.31;;;-144.47;28.30
31585;BME280;18191;51.288;12.390;2023-04-22T15:21:40;48901.41;;;-144.47;27.67
31585;BME280;18191;51.288;12.390;2023-04-22T15:26:30;48895.44;;;-144.47;28.22
31585;BME280;18191;51.288;12.390;2023-04-22T15:31:21;48929.28;;;-144.47;28.23
31585;BME280;18191;51.288;12.390;2023-04-22T15:36:11;48889.50;;;-144.47;29.29
31585;BME280;18191;51.288;12.390;2023-04-22T15:41:02;48921.31;;;-144.47;29.39
31585;BME280;18191;51.288;12.390;2023-04-22T15:45:52;48893.47;;;-144.47;29.66
31585;BME280;18191;51.288;12.390;2023-04-22T15:50:42;48919.31;;;-144.47;29.26
31585;BME280;18191;51.288;12.390;2023-04-22T15:55:34;48903.41;;;-144.47;30.12
31585;BME280;18191;51.288;12.390;2023-04-22T16:00:24;48949.16;;;-144.47;30.70
31585;BME280;18191;51.288;12.390;2023-04-22T16:05:15;48937.22;;;-144.47;30.94
31585;BME280;18191;51.288;12.390;2023-04-22T16:10:05;48923.31;;;-144.47;30.04
31585;BME280;18191;51.288;12.390;2023-04-22T16:14:56;48905.41;;;-144.47;30.62
31585;BME280;18191;51.288;12.390;2023-04-22T16:19:46;48909.38;;;-144.47;31.08
31585;BME280;18191;51.288;12.390;2023-04-22T16:24:36;48881.53;;;-144.47;31.62
31585;BME280;18191;51.288;12.390;2023-04-22T16:29:26;48933.25;;;-144.47;32.38
31585;BME280;18191;51.288;12.390;2023-04-22T16:34:17;48913.34;;;-144.47;31.71
31585;BME280;18191;51.288;12.390;2023-04-22T16:39:07;48897.44;;;-144.47;32.11
31585;BME280;18191;51.288;12.390;2023-04-22T16:43:57;48921.31;;;-144.47;32.07
31585;BME280;18191;51.288;12.390;2023-04-22T16:48:48;48929.28;;;-144.47;32.00
31585;BME280;18191;51.288;12.390;2023-04-22T16:53:39;48937.22;;;-144.47;32.04
31585;BME280;18191;51.288;12.390;2023-04-22T16:58:29;48913.34;;;-144.47;31.28
31585;BME280;18191;51.288;12.390;2023-04-22T17:03:19;48937.22;;;-144.47;31.94
31585;BME280;18191;51.288;12.390;2023-04-22T17:08:10;48909.38;;;-144.47;30.96
31585;BME280;18191;51.288;12.390;2023-04-22T17:13:00;48941.19;;;-144.47;32.46
31585;BME280;18191;51.288;12.390;2023-04-22T17:17:50;48913.34;;;-144.47;32.58
31585;BME280;18191;51.288;12.390;2023-04-22T17:22:40;48893.47;;;-144.47;32.15
31585;BME280;18191;51.288;12.390;2023-04-22T17:27:31;48885.50;;;-144.47;31.69
31585;BME280;18191;51.288;12.390;2023-04-22T17:32:21;48941.19;;;-144.47;32.54
31585;BME280;18191;51.288;12.390;2023-04-22T17:37:11;48945.19;;;-144.47;32.74
31585;BME280;18191;51.288;12.390;2023-04-22T17:42:01;48885.50;;;-144.47;33.21
31585;BME280;18191;51.288;12.390;2023-04-22T17:46:51;48937.22;;;-144.47;33.96
31585;BME280;18191;51.288;12.390;2023-04-22T17:51:42;48988.94;;;-144.47;33.74
31585;BME280;18191;51.288;12.390;2023-04-22T17:56:32;48937.22;;;-144.47;34.53
31585;BME280;18191;51.288;12.390;2023-04-22T18:01:22;48945.19;;;-144.47;35.14
31585;BME280;18191;51.288;12.390;2023-04-22T18:06:12;48879.53;;;-144.47;35.26
31585;BME280;18191;51.288;12.390;2023-04-22T18:11:03;48901.41;;;-144.47;36.25
31585;BME280;18191;51.288;12.390;2023-04-22T18:15:54;48893.47;;;-144.47;37.19
31585;BME280;18191;51.288;12.390;2023-04-22T18:20:44;48925.28;;;-144.47;37.30
31585;BME280;18191;51.288;12.390;2023-04-22T18:25:34;48967.06;;;-144.47;37.81
31585;BME280;18191;51.288;12.390;2023-04-22T18:30:24;48921.31;;;-144.47;37.79
31585;BME280;18191;51.288;12.390;2023-04-22T18:35:16;48925.28;;;-144.47;38.36
31585;BME280;18191;51.288;12.390;2023-04-22T18:40:06;48925.28;;;-144.47;38.63
31585;BME280;18191;51.288;12.390;2023-04-22T18:44:57;48941.19;;;-144.47;39.65
31585;BME280;18191;51.288;12.390;2023-04-22T18:49:47;48931.25;;;-144.47;39.85
31585;BME280;18191;51.288;12.390;2023-04-22T18:54:37;48917.34;;;-144.47;40.17
31585;BME280;18191;51.288;12.390;2023-04-22T18:59:27;48961.09;;;-144.47;41.47
31585;BME280;18191;51.288;12.390;2023-04-22T19:04:18;48881.53;;;-144.47;41.05
31585;BME280;18191;51.288;12.390;2023-04-22T19:09:08;48917.34;;;-144.47;42.37
31585;BME280;18191;51.288;12.390;2023-04-22T19:13:58;48927.28;;;-144.47;43.01
31585;BME280;18191;51.288;12.390;2023-04-22T19:18:50;48973.03;;;-144.47;43.58
31585;BME280;18191;51.288;12.390;2023-04-22T19:23:41;48945.19;;;-144.47;43.90
31585;BME280;18191;51.288;12.390;2023-04-22T19:28:31;48969.06;;;-144.47;45.59
31585;BME280;18191;51.288;12.390;2023-04-22T19:33:21;48925.28;;;-144.47;45.49
31585;BME280;18191;51.288;12.390;2023-04-22T19:38:11;48949.16;;;-144.47;46.77
31585;BME280;18191;51.288;12.390;2023-04-22T19:43:05;48921.31;;;-144.47;46.68
31585;BME280;18191;51.288;12.390;2023-04-22T19:47:55;48957.13;;;-144.47;46.97
31585;BME280;18191;51.288;12.390;2023-04-22T19:52:48;48929.28;;;-144.47;45.97
31585;BME280;18191;51.288;12.390;2023-04-22T19:57:39;48959.09;;;-144.47;47.01
31585;BME280;18191;51.288;12.390;2023-04-22T20:02:36;48945.19;;;-144.47;47.36
31585;BME280;18191;51.288;12.390;2023-04-22T20:07:28;48917.34;;;-144.47;47.02
31585;BME280;18191;51.288;12.390;2023-04-22T20:12:18;48943.19;;;-144.47;47.74
31585;BME280;18191;51.288;12.390;2023-04-22T20:17:10;48943.19;;;-144.47;47.45
31585;BME280;18191;51.288;12.390;2023-04-22T20:22:00;48913.34;;;-144.47;47.15
31585;BME280;18191;51.288;12.390;2023-04-22T20:26:51;48939.22;;;-144.47;46.77
31585;BME280;18191;51.288;12.390;2023-04-22T20:31:41;48949.16;;;-144.47;47.34
31585;BME280;18191;51.288;12.390;2023-04-22T20:36:32;48925.28;;;-144.47;46.88
31585;BME280;18191;51.288;12.390;2023-04-22T20:41:22;48919.31;;;-144.47;47.10
31585;BME280;18191;51.288;12.390;2023-04-22T20:46:13;48913.34;;;-144.47;46.90
31585;BME280;18191;51.288;12.390;2023-04-22T20:51:03;48937.22;;;-144.47;46.75
31585;BME280;18191;51.288;12.390;2023-04-22T20:55:54;48913.34;;;-144.47;46.41
31585;BME280;18191;51.288;12.390;2023-04-22T21:00:44;48953.13;;;-144.47;46.33
31585;BME280;18191;51.288;12.390;2023-04-22T21:05:35;48941.19;;;-144.47;47.35
31585;BME280;18191;51.288;12.390;2023-04-22T21:10:31;48935.25;;;-144.47;48.17
31585;BME280;18191;51.288;12.390;2023-04-22T21:15:23;48917.34;;;-144.47;48.84
31585;BME280;18191;51.288;12.390;2023-04-22T21:20:14;48965.06;;;-144.47;48.61
31585;BME280;18191;51.288;12.390;2023-04-22T21:25:04;48913.34;;;-144.47;49.22
31585;BME280;18191;51.288;12.390;2023-04-22T21:29:54;48953.13;;;-144.47;49.73
31585;BME280;18191;51.288;12.390;2023-04-22T21:34:45;48929.28;;;-144.47;50.83
31585;BME280;18191;51.288;12.390;2023-04-22T21:39:36;48931.25;;;-144.47;52.46
31585;BME280;18191;51.288;12.390;2023-04-22T21:44:26;48929.28;;;-144.47;50.89
31585;BME280;18191;51.288;12.390;2023-04-22T21:49:16;48961.09;;;-144.47;52.63
31585;BME280;18191;51.288;12.390;2023-04-22T21:54:07;48953.13;;;-144.47;54.26
31585;BME280;18191;51.288;12.390;2023-04-22T21:58:57;48927.28;;;-144.47;55.13
31585;BME280;18191;51.288;12.390;2023-04-22T22:03:47;48965.06;;;-144.47;55.90
31585;BME280;18191;51.288;12.390;2023-04-22T22:08:37;48931.25;;;-144.47;56.35
31585;BME280;18191;51.288;12.390;2023-04-22T22:13:28;48941.19;;;-144.47;56.82
31585;BME280;18191;51.288;12.390;2023-04-22T22:18:18;48925.28;;;-144.47;58.73
31585;BME280;18191;51.288;12.390;2023-04-22T22:23:08;48903.41;;;-144.47;59.30
31585;BME280;18191;51.288;12.390;2023-04-22T22:27:58;48941.19;;;-144.47;58.96
31585;BME280;18191;51.288;12.390;2023-04-22T22:32:48;48953.13;;;-144.47;60.33
31585;BME280;18191;51.288;12.390;2023-04-22T22:37:39;48971.03;;;-144.47;59.98
31585;BME280;18191;51.288;12.390;2023-04-22T22:42:29;48975.03;;;-144.47;60.92
31585;BME280;18191;51.288;12.390;2023-04-22T22:47:20;48923.31;;;-144.47;61.25
31585;BME280;18191;51.288;12.390;2023-04-22T22:52:10;48931.25;;;-144.47;61.34
31585;BME280;18191;51.288;12.390;2023-04-22T22:57:01;48941.19;;;-144.47;63.82
31585;BME280;18191;51.288;12.390;2023-04-22T23:01:51;48929.28;;;-144.47;67.50
31585;BME280;18191;51.288;12.390;2023-04-22T23:06:41;49000.88;;;-144.47;68.54
31585;BME280;18191;51.288;12.390;2023-04-22T23:11:31;48931.25;;;-144.47;70.94
31585;BME280;18191;51.288;12.390;2023-04-22T23:16:21;48951.16;;;-144.47;70.27
31585;BME280;18191;51.288;12.390;2023-04-22T23:21:12;48973.03;;;-144.47;71.24
31585;BME280;18191;51.288;12.390;2023-04-22T23:26:03;48933.25;;;-144.47;71.03
31585;BME280;18191;51.288;12.390;2023-04-22T23:30:54;48941.19;;;-144.47;70.44
31585;BME280;18191;51.288;12.390;2023-04-22T23:35:44;48927.28;;;-144.47;71.62
31585;BME280;18191;51.288;12.390;2023-04-22T23:40:35;48984.97;;;-144.47;72.20
31585;BME280;18191;51.288;12.390;2023-04-22T23:45:25;48977.00;;;-144.47;73.97
31585;BME280;18191;51.288;12.390;2023-04-22T23:50:16;48937.22;;;-144.47;73.91
31585;BME280;18191;51.288;12.390;2023-04-22T23:55:08;48969.06;;;-144.47;73.93
31585;BME280;18191;51.288;12.390;2023-04-22T23:59:59;48933.25;;;-144.47;75.28
